Hlavní strana
METAR-TAF:

METAR-TAF

Letiště :

Letecká základna

Ämari, Estonsko

zeměpisná šířka: 59-15-44N, zeměpisná délka: 24-13-07E, výška: 20 m

Aktuální stav počasí

Zpráva byla vytvořena před 51 minutami, v 01:58 UTC
Západní vítr 16 kt s nárazy do 26 kt
Teplota 4°C
Vlhkost vzduchu 70%
Tlak 1009 hPa
Viditelnost 10 km a více
Žádná oblačnost pod 1500 m, nevyskytují se cumulonimby.

METAR: EEEI 240158Z 26016G26KT CAVOK 04/M01 Q1009 R24/290095

Čas: 04:49 (02:49 UTC)

Předpověď počasí

Zpráva byla vytvořena před 3 hodinami a 19 minutami, v 23:30 UTC
Předpověď platná od 24 v 00 UTC do 24 v 24 UTC
Západní vítr 14 kt
Viditelnost 10 km a více
Žádná oblačnost pod 1500 m, nevyskytují se cumulonimby.
Dočasný
od 24 v 07 UTC do 24 v 15 UTC
Západoseverozápadní vítr 18 kt s nárazy do 28 kt

TAF: EEEI 232330Z 2400/2424 27014KT CAVOK TEMPO 2407/2415 29018G28KT

Stav a předpovědi počasí z více než 4 000 letišť (zprávy METAR a TAF).

Červené a žluté tečky na mapě představují dostupné meteorologické stanice.

Když kurzor umístíte na tečku, zobrazí se název stanice.

Pak kliknutím zobrazíte stav a předpověď počasí.

Chcete-li změnit mapu, kliknutím na zelené tlačítko se znaménkem +mapu přiblížíte, kliknutím na zelené tlačítko se znaménkem – mapu oddálíte a kliknutím na zelené šipky přejdete na sousední mapy.


METAR-TAF: